Time;durP1;ratioP1;P1;durP2;ratioP2;P2;SDS_P1;SDS_P2;PMS_P1;PMS_P2;Temp;Humidity;BMP_temperature;BMP_pressure;BME280_temperature;BME280_humidity;BME280_pressure;Samples;Min_cycle;Max_cycle;Signal;HPM_P1;HPM_P2
2021/05/28 00:00:34;;;;;;;;;19.33;17.00;;;;;21.05;39.67;101640.81;5035122;28;61450;-58
2021/05/28 00:02:59;;;;;;;;;19.00;18.00;;;;;21.04;39.60;101639.09;5021451;28;48760;-58
2021/05/28 00:05:25;;;;;;;;;17.33;17.33;;;;;21.05;39.68;101632.06;5022414;28;47130;-58
2021/05/28 00:07:50;;;;;;;;;17.33;16.33;;;;;21.04;39.54;101628.53;5022273;28;45328;-58
2021/05/28 00:10:15;;;;;;;;;19.67;17.00;;;;;21.04;39.82;101635.59;5021303;28;45369;-58
2021/05/28 00:12:42;;;;;;;;;17.67;16.33;;;;;21.04;39.74;101638.25;5022695;28;45430;-58
2021/05/28 00:15:12;;;;;;;;;17.33;16.33;;;;;21.04;39.52;101638.25;5022348;28;46139;-58
2021/05/28 00:17:37;;;;;;;;;17.00;17.00;;;;;21.03;39.49;101640.00;5022336;28;45303;-58
2021/05/28 00:20:07;;;;;;;;;16.00;14.67;;;;;21.02;39.70;101647.06;5022410;28;45226;-58
2021/05/28 00:22:33;;;;;;;;;17.00;17.00;;;;;21.01;39.76;101641.84;5025014;28;45334;-58
2021/05/28 00:24:58;;;;;;;;;18.33;15.33;;;;;21.02;39.89;101647.06;5027606;28;73069;-57
2021/05/28 00:27:24;;;;;;;;;23.00;20.33;;;;;21.01;39.77;101653.25;5020957;28;45170;-58
2021/05/28 00:29:50;;;;;;;;;18.67;16.00;;;;;21.01;39.50;101650.63;5022499;28;45268;-58
2021/05/28 00:32:15;;;;;;;;;15.67;15.67;;;;;21.01;39.71;101647.13;5022708;28;45226;-58
2021/05/28 00:34:41;;;;;;;;;15.00;14.00;;;;;21.01;39.58;101644.50;5033883;28;46363;-58
2021/05/28 00:37:06;;;;;;;;;17.00;15.67;;;;;21.00;39.83;101646.25;5021539;28;57693;-58
2021/05/28 00:39:31;;;;;;;;;13.33;12.00;;;;;21.00;39.65;101643.59;5022317;28;45171;-58
2021/05/28 00:41:57;;;;;;;;;17.67;16.00;;;;;21.00;39.70;101651.53;5021679;28;53907;-57
2021/05/28 00:44:27;;;;;;;;;14.67;13.33;;;;;20.99;39.62;101647.16;5021868;28;45599;-58
2021/05/28 00:46:52;;;;;;;;;16.67;16.67;;;;;20.99;39.90;101652.44;5022155;28;45305;-57
2021/05/28 00:49:18;;;;;;;;;15.00;14.00;;;;;20.98;40.31;101648.06;5021255;28;63350;-57
2021/05/28 00:51:43;;;;;;;;;16.67;16.67;;;;;20.99;39.64;101656.84;5021535;28;60293;-57
2021/05/28 00:54:12;;;;;;;;;12.00;12.00;;;;;20.98;39.73;101655.13;5021445;28;46139;-58
2021/05/28 00:56:41;;;;;;;;;13.00;13.00;;;;;20.98;39.76;101658.63;5022316;28;45362;-57
2021/05/28 00:59:08;;;;;;;;;16.00;16.00;;;;;20.98;39.67;101668.31;5021404;28;45381;-57
2021/05/28 01:01:33;;;;;;;;;14.67;14.00;;;;;20.98;39.85;101661.25;5033149;28;45387;-57
2021/05/28 01:03:59;;;;;;;;;13.00;13.00;;;;;20.97;39.98;101666.59;5003753;28;47465;-57
2021/05/28 01:06:25;;;;;;;;;15.33;15.33;;;;;20.96;40.07;101668.34;5027109;28;45248;-57
2021/05/28 01:08:50;;;;;;;;;14.00;14.00;;;;;20.97;39.90;101669.22;5028243;28;45312;-57
2021/05/28 01:11:16;;;;;;;;;16.33;15.00;;;;;20.96;39.68;101667.50;5028599;28;45289;-57
2021/05/28 01:13:41;;;;;;;;;17.00;16.67;;;;;20.95;39.98;101658.72;5028295;28;45223;-57
2021/05/28 01:16:07;;;;;;;;;16.67;15.67;;;;;20.96;39.91;101664.88;5027529;28;64870;-57
2021/05/28 01:18:32;;;;;;;;;16.33;14.33;;;;;20.95;39.93;101656.06;5028381;28;45307;-57
2021/05/28 01:20:58;;;;;;;;;14.67;14.67;;;;;20.95;39.85;101669.25;5028676;28;45574;-57
2021/05/28 01:23:23;;;;;;;;;15.00;15.00;;;;;20.94;39.93;101662.28;5036448;28;45444;-57
2021/05/28 01:25:50;;;;;;;;;17.33;15.00;;;;;20.94;39.90;101669.31;5028219;28;45529;-57
2021/05/28 01:28:15;;;;;;;;;14.67;14.67;;;;;20.94;39.70;101671.97;5028169;28;45359;-57
2021/05/28 01:30:41;;;;;;;;;14.00;14.00;;;;;20.94;40.04;101664.03;5027926;28;52533;-57
2021/05/28 01:33:06;;;;;;;;;13.00;13.00;;;;;20.93;39.76;101671.13;5027916;28;46113;-57
2021/05/28 01:35:31;;;;;;;;;15.67;14.00;;;;;20.92;39.92;101661.47;5028029;28;45387;-57
2021/05/28 01:37:57;;;;;;;;;16.67;15.33;;;;;20.92;40.02;101661.47;5027755;28;45311;-57
2021/05/28 01:40:23;;;;;;;;;15.33;13.00;;;;;20.92;40.13;101661.47;5028386;28;45329;-57
2021/05/28 01:42:49;;;;;;;;;14.67;13.33;;;;;20.92;40.05;101665.88;5027828;28;45994;-57
2021/05/28 01:45:16;;;;;;;;;16.67;14.33;;;;;20.91;39.79;101667.66;5027835;28;45153;-56
2021/05/28 01:47:41;;;;;;;;;13.00;12.00;;;;;20.92;40.04;101660.59;5026584;28;45459;-56
2021/05/28 01:50:09;;;;;;;;;13.00;13.00;;;;;20.90;39.88;101660.66;5010243;28;45221;-57
2021/05/28 01:52:35;;;;;;;;;11.33;10.33;;;;;20.90;39.94;101659.75;5026188;28;46306;-57
2021/05/28 01:55:00;;;;;;;;;16.00;14.33;;;;;20.90;39.98;101668.56;5025848;28;63868;-56
2021/05/28 01:57:26;;;;;;;;;15.67;15.00;;;;;20.90;40.04;101673.84;5027918;28;45310;-57
2021/05/28 01:59:51;;;;;;;;;15.33;15.00;;;;;20.89;40.15;101664.19;5035025;28;45544;-57
2021/05/28 02:02:16;;;;;;;;;17.00;15.33;;;;;20.89;40.03;101664.19;5033088;28;72274;-57
2021/05/28 02:04:42;;;;;;;;;14.00;13.00;;;;;20.90;40.01;101672.94;5027187;28;58877;-57
2021/05/28 02:07:08;;;;;;;;;13.00;11.00;;;;;20.88;39.90;101675.66;5027625;28;45331;-57
2021/05/28 02:09:34;;;;;;;;;14.00;13.33;;;;;20.88;40.11;101678.28;5028063;28;45568;-57
2021/05/28 02:12:00;;;;;;;;;11.33;11.33;;;;;20.88;40.16;101670.38;5027459;28;45360;-57
2021/05/28 02:14:28;;;;;;;;;11.33;11.33;;;;;20.87;40.11;101676.56;5027638;28;45335;-57
2021/05/28 02:16:54;;;;;;;;;15.00;14.00;;;;;20.88;40.05;101674.78;5024883;28;45355;-57
2021/05/28 02:19:20;;;;;;;;;14.33;14.33;;;;;20.87;39.73;101681.84;5023354;28;45407;-57
2021/05/28 02:21:47;;;;;;;;;15.00;15.00;;;;;20.87;40.34;101681.84;5023853;28;47193;-57
2021/05/28 02:24:14;;;;;;;;;11.67;11.00;;;;;20.86;40.11;101680.09;5033262;28;45318;-57
2021/05/28 02:26:45;;;;;;;;;12.00;11.33;;;;;20.86;39.97;101685.38;5023890;28;45213;-57
2021/05/28 02:29:11;;;;;;;;;12.67;12.67;;;;;20.86;40.07;101680.09;5023015;28;45433;-57
2021/05/28 02:31:37;;;;;;;;;14.00;11.33;;;;;20.85;39.99;101687.16;5023957;28;46175;-57
2021/05/28 02:34:02;;;;;;;;;11.33;10.33;;;;;20.85;40.22;101681.00;5023976;28;45392;-57
2021/05/28 02:36:28;;;;;;;;;14.67;11.67;;;;;20.86;40.23;101688.03;5022841;28;45419;-57
2021/05/28 02:38:53;;;;;;;;;14.33;12.67;;;;;20.85;40.27;101681.91;5023203;28;61367;-57
2021/05/28 02:41:18;;;;;;;;;14.00;13.00;;;;;20.84;40.17;101685.44;5023489;28;57187;-57
2021/05/28 02:43:44;;;;;;;;;12.33;10.67;;;;;20.84;40.14;101676.66;5022004;28;63628;-57
2021/05/28 02:46:09;;;;;;;;;12.67;12.67;;;;;20.84;40.40;101676.66;5023311;28;59661;-57
2021/05/28 02:48:35;;;;;;;;;11.33;11.33;;;;;20.84;40.28;101681.94;5023707;28;51451;-57
2021/05/28 02:51:00;;;;;;;;;12.67;12.67;;;;;20.83;40.28;101674.91;5022990;28;65286;-57
2021/05/28 02:53:27;;;;;;;;;13.00;10.67;;;;;20.83;40.25;101672.28;5021738;28;63041;-57
2021/05/28 02:55:52;;;;;;;;;13.67;13.00;;;;;20.83;40.24;101680.19;5023889;28;45293;-59
2021/05/28 02:58:18;;;;;;;;;14.00;11.00;;;;;20.82;40.29;101687.25;5027268;28;45403;-57
2021/05/28 03:00:43;;;;;;;;;13.00;13.00;;;;;20.82;40.39;101681.09;5036952;28;46902;-58
2021/05/28 03:03:09;;;;;;;;;10.67;10.67;;;;;20.81;40.20;101680.25;5023593;28;45343;-57
2021/05/28 03:05:34;;;;;;;;;11.33;11.00;;;;;20.81;40.25;101674.97;5022847;28;61405;-57
2021/05/28 03:07:59;;;;;;;;;13.00;12.00;;;;;20.81;40.25;101676.72;5023687;28;45356;-58
2021/05/28 03:10:25;;;;;;;;;12.67;12.67;;;;;20.81;40.13;101680.25;5023189;28;49125;-58
2021/05/28 03:12:50;;;;;;;;;13.67;13.67;;;;;20.81;39.95;101674.09;5022880;28;65970;-57
2021/05/28 03:15:15;;;;;;;;;10.33;10.33;;;;;20.81;40.27;101680.25;5023064;28;50838;-58
2021/05/28 03:17:43;;;;;;;;;9.67;9.67;;;;;20.80;40.33;101683.78;5023569;28;46957;-58
2021/05/28 03:20:18;;;;;;;;;13.33;9.67;;;;;20.80;40.24;101688.19;5023275;28;46616;-58
2021/05/28 03:22:44;;;;;;;;;13.00;12.00;;;;;20.79;40.29;101682.06;5027142;28;45364;-58
2021/05/28 03:25:11;;;;;;;;;12.33;12.33;;;;;20.80;40.44;101682.91;5027371;28;45181;-58
2021/05/28 03:27:37;;;;;;;;;12.00;12.00;;;;;20.79;40.34;101679.44;5022677;28;45185;-57
2021/05/28 03:30:04;;;;;;;;;12.67;11.00;;;;;20.79;40.15;101686.50;5021118;28;46220;-57
2021/05/28 03:32:30;;;;;;;;;13.67;12.00;;;;;20.79;40.22;101683.84;5023098;28;45360;-58
2021/05/28 03:34:56;;;;;;;;;11.67;10.33;;;;;20.78;40.36;101677.69;5022487;28;53853;-58
2021/05/28 03:37:22;;;;;;;;;13.33;13.33;;;;;20.77;40.39;101685.66;5022081;28;45293;-58
2021/05/28 03:39:47;;;;;;;;;11.00;11.00;;;;;20.77;40.33;101683.88;5021980;28;65828;-58
2021/05/28 03:42:13;;;;;;;;;10.67;10.67;;;;;20.77;40.24;101677.75;5022002;28;45352;-57
2021/05/28 03:44:38;;;;;;;;;12.00;11.67;;;;;20.78;40.27;101682.13;5022827;28;45244;-58
2021/05/28 03:47:04;;;;;;;;;10.67;10.67;;;;;20.77;40.33;101683.88;5023061;28;46046;-58
2021/05/28 03:49:29;;;;;;;;;9.33;8.33;;;;;20.77;40.26;101693.59;5022754;28;46111;-58
2021/05/28 03:51:55;;;;;;;;;12.67;10.33;;;;;20.76;40.27;101684.78;5021908;28;62063;-58
2021/05/28 03:54:20;;;;;;;;;11.00;9.67;;;;;20.76;40.30;101673.38;5021251;28;53235;-58
2021/05/28 03:56:46;;;;;;;;;12.00;12.00;;;;;20.75;40.34;101675.16;5030605;28;45450;-58
2021/05/28 03:59:12;;;;;;;;;9.67;9.67;;;;;20.75;40.21;101677.78;5028388;28;46024;-58
2021/05/28 04:01:37;;;;;;;;;12.67;10.67;;;;;20.76;40.50;101670.75;5034289;28;45272;-58
2021/05/28 04:04:02;;;;;;;;;10.67;10.67;;;;;20.75;40.09;101674.25;5021430;28;45287;-58
2021/05/28 04:06:28;;;;;;;;;9.00;9.00;;;;;20.75;40.33;101671.63;5022864;28;45236;-58
2021/05/28 04:08:53;;;;;;;;;10.00;9.33;;;;;20.75;40.32;101667.22;5022207;28;46610;-57
2021/05/28 04:11:19;;;;;;;;;10.33;10.33;;;;;20.75;40.30;101666.34;5022035;28;65186;-58
2021/05/28 04:13:44;;;;;;;;;11.00;11.00;;;;;20.75;40.33;101679.53;5022452;28;45276;-58
2021/05/28 04:16:09;;;;;;;;;12.33;11.00;;;;;20.75;40.46;101679.53;5022704;28;45497;-58
2021/05/28 04:18:35;;;;;;;;;10.67;10.67;;;;;20.74;40.23;101673.38;5020502;28;62789;-57
2021/05/28 04:21:00;;;;;;;;;11.00;11.00;;;;;20.73;40.24;101679.56;5022395;28;47013;-58
2021/05/28 04:23:26;;;;;;;;;11.00;9.33;;;;;20.74;40.53;101683.09;5031247;28;45316;-58
2021/05/28 04:25:51;;;;;;;;;12.67;12.67;;;;;20.74;40.36;101680.44;5021831;28;53161;-58
2021/05/28 04:28:17;;;;;;;;;11.33;10.67;;;;;20.73;40.42;101687.47;5022036;28;45315;-58
2021/05/28 04:30:42;;;;;;;;;11.33;11.00;;;;;20.73;40.33;101686.63;5022258;28;45296;-58
2021/05/28 04:33:08;;;;;;;;;11.67;9.67;;;;;20.73;40.17;101687.47;5021190;28;45303;-57
2021/05/28 04:35:34;;;;;;;;;12.33;10.67;;;;;20.74;40.31;101688.34;5022233;28;48690;-57
2021/05/28 04:37:59;;;;;;;;;10.33;10.33;;;;;20.72;40.57;101691.06;5021768;28;46284;-57
2021/05/28 04:40:26;;;;;;;;;9.00;9.00;;;;;20.74;40.35;101693.63;5020558;28;45322;-57
2021/05/28 04:42:52;;;;;;;;;9.33;9.33;;;;;20.73;40.27;101697.19;5022169;28;45252;-57
2021/05/28 04:45:17;;;;;;;;;8.33;8.33;;;;;20.73;40.67;101697.19;5021404;28;58273;-58
2021/05/28 04:47:43;;;;;;;;;10.67;10.33;;;;;20.72;40.42;101704.25;5033981;28;46361;-58
2021/05/28 04:50:09;;;;;;;;;10.33;10.33;;;;;20.72;40.36;101701.59;5028901;28;45305;-57
2021/05/28 04:52:34;;;;;;;;;9.67;9.33;;;;;20.71;40.31;101708.63;5026727;28;45314;-58
2021/05/28 04:55:00;;;;;;;;;11.33;10.67;;;;;20.67;40.33;101709.63;5021316;28;60390;-58
2021/05/28 04:57:25;;;;;;;;;11.33;10.33;;;;;20.72;40.16;101717.44;5021216;28;61751;-58
2021/05/28 04:59:51;;;;;;;;;13.33;11.00;;;;;20.71;40.50;101719.19;5028579;28;45315;-58
2021/05/28 05:02:16;;;;;;;;;12.67;12.67;;;;;20.72;40.34;101725.34;5027984;28;45264;-58
2021/05/28 05:04:42;;;;;;;;;11.00;9.67;;;;;20.69;40.30;101721.00;5022049;28;45394;-58
2021/05/28 05:07:07;;;;;;;;;9.00;9.00;;;;;20.70;40.47;101720.09;5021299;28;45372;-58
2021/05/28 05:09:32;;;;;;;;;8.67;8.67;;;;;20.70;40.14;101720.09;5021311;28;59168;-58
2021/05/28 05:11:58;;;;;;;;;10.33;10.33;;;;;20.70;40.35;101725.38;5021652;28;45865;-58
2021/05/28 05:14:23;;;;;;;;;10.67;9.67;;;;;20.70;40.23;101725.38;5021794;28;45285;-58
2021/05/28 05:16:49;;;;;;;;;11.33;10.33;;;;;20.70;40.52;101727.16;5021430;28;45392;-57
2021/05/28 05:19:14;;;;;;;;;11.67;11.67;;;;;20.71;40.37;101745.56;5021702;28;45332;-57
2021/05/28 05:21:40;;;;;;;;;11.67;11.67;;;;;20.70;40.55;101735.91;5020812;28;57480;-57
2021/05/28 05:24:09;;;;;;;;;11.33;9.67;;;;;20.70;40.65;101746.47;5028997;28;45355;-58
2021/05/28 05:26:35;;;;;;;;;11.33;9.67;;;;;20.70;40.32;101745.63;5035424;28;46142;-58
2021/05/28 05:29:00;;;;;;;;;7.67;7.67;;;;;20.71;40.46;101744.72;5041592;28;45326;-58
2021/05/28 05:31:26;;;;;;;;;10.00;10.00;;;;;20.70;40.52;101743.84;5039974;28;45334;-58
2021/05/28 05:33:51;;;;;;;;;11.33;10.33;;;;;20.70;40.57;101754.38;5041644;28;45518;-59
2021/05/28 05:36:16;;;;;;;;;12.33;12.33;;;;;20.71;40.60;101755.25;5041169;28;46895;-59
2021/05/28 05:38:42;;;;;;;;;13.00;11.67;;;;;20.71;40.37;101756.13;5038804;28;67218;-58
2021/05/28 05:41:07;;;;;;;;;13.00;11.33;;;;;20.70;40.48;101751.75;5041368;28;45243;-57
2021/05/28 05:43:33;;;;;;;;;9.33;9.33;;;;;20.71;40.23;101747.34;5040263;28;45402;-52
2021/05/28 05:46:01;;;;;;;;;14.67;11.00;;;;;20.71;40.74;101747.34;5040482;28;45944;-58
2021/05/28 05:48:26;;;;;;;;;10.00;10.00;;;;;20.71;40.68;101748.19;5041046;28;45267;-59
2021/05/28 05:50:52;;;;;;;;;10.33;10.00;;;;;20.71;40.81;101748.19;5039237;28;58758;-58
2021/05/28 05:53:17;;;;;;;;;9.33;7.00;;;;;20.71;40.37;101745.56;5043971;28;48301;-58
2021/05/28 05:55:42;;;;;;;;;14.67;13.67;;;;;20.73;40.86;101747.28;5042382;28;61519;-58
2021/05/28 05:58:08;;;;;;;;;11.00;11.00;;;;;20.73;41.04;101747.28;5042237;28;45440;-58
2021/05/28 06:00:33;;;;;;;;;11.67;11.67;;;;;20.72;41.11;101741.16;5036869;28;55666;-59
2021/05/28 06:02:58;;;;;;;;;13.00;11.67;;;;;20.73;41.37;101747.28;5025004;28;45229;-58
2021/05/28 06:05:24;;;;;;;;;12.67;12.67;;;;;20.73;41.55;101744.66;5024283;28;46167;-58
2021/05/28 06:07:49;;;;;;;;;14.67;13.33;;;;;20.73;41.44;101732.31;5024166;28;45276;-58
2021/05/28 06:10:15;;;;;;;;;15.00;15.00;;;;;20.73;41.55;101731.47;5022434;28;65877;-58
2021/05/28 06:12:41;;;;;;;;;14.00;14.00;;;;;20.73;41.62;101726.19;5023059;28;45334;-58
2021/05/28 06:15:06;;;;;;;;;16.67;14.67;;;;;20.74;41.72;101735.84;5024015;28;45506;-58
2021/05/28 06:17:32;;;;;;;;;14.33;14.33;;;;;20.73;41.69;101737.59;5023065;28;45371;-58
2021/05/28 06:19:57;;;;;;;;;13.00;13.00;;;;;20.74;41.77;101738.47;5023967;28;55413;-58
2021/05/28 06:22:23;;;;;;;;;12.33;12.33;;;;;20.74;42.02;101746.38;5024071;28;45328;-58
2021/05/28 06:24:48;;;;;;;;;12.00;12.00;;;;;20.73;41.88;101742.88;5031062;28;55317;-58
2021/05/28 06:27:14;;;;;;;;;13.33;12.33;;;;;20.73;41.72;101744.66;5024034;28;45266;-58
2021/05/28 06:29:39;;;;;;;;;13.00;12.00;;;;;20.75;41.87;101743.72;5022593;28;45243;-58
2021/05/28 06:32:05;;;;;;;;;12.33;12.00;;;;;20.74;41.76;101744.59;5023365;28;52991;-59
2021/05/28 06:34:30;;;;;;;;;16.00;13.00;;;;;20.75;41.74;101732.28;5023644;28;45283;-59
2021/05/28 06:36:55;;;;;;;;;10.67;10.67;;;;;20.74;42.01;101734.03;5023635;28;66210;-58
2021/05/28 06:39:21;;;;;;;;;15.67;12.67;;;;;20.75;41.79;101734.94;5031528;28;45222;-58
2021/05/28 06:41:46;;;;;;;;;12.00;12.00;;;;;20.74;41.72;101731.41;5023588;28;51472;-58
2021/05/28 06:44:11;;;;;;;;;12.00;10.67;;;;;20.75;42.11;101727.00;5023305;28;56602;-58
2021/05/28 06:46:38;;;;;;;;;11.33;11.33;;;;;20.75;42.00;101727.00;5022907;28;64754;-59
2021/05/28 06:49:03;;;;;;;;;13.33;11.67;;;;;20.76;41.95;101731.41;5023544;28;45362;-57
2021/05/28 06:51:29;;;;;;;;;14.33;12.67;;;;;20.74;41.66;101722.66;5030047;28;45523;-56
2021/05/28 06:53:54;;;;;;;;;13.67;12.00;;;;;20.74;41.78;101730.56;5021586;28;65098;-57
2021/05/28 06:56:20;;;;;;;;;11.67;11.67;;;;;20.73;41.72;101734.94;5023286;28;45335;-56
2021/05/28 06:58:49;;;;;;;;;11.33;11.33;;;;;20.73;41.72;101737.59;5021477;28;45276;-56
2021/05/28 07:01:16;;;;;;;;;15.00;13.00;;;;;20.74;41.78;101743.75;5036561;28;45547;-56
2021/05/28 07:03:42;;;;;;;;;10.33;10.33;;;;;20.73;41.62;101742.00;5022642;28;47069;-56
2021/05/28 07:06:08;;;;;;;;;10.33;10.33;;;;;20.73;41.96;101742.88;5022690;28;45719;-55
2021/05/28 07:08:34;;;;;;;;;13.00;10.33;;;;;20.74;41.74;101741.09;5023010;28;45379;-55
2021/05/28 07:10:59;;;;;;;;;13.67;12.67;;;;;20.74;41.88;101739.31;5021703;28;45658;-56
2021/05/28 07:13:24;;;;;;;;;10.00;10.00;;;;;20.73;41.86;101731.47;5022484;28;62057;-55
2021/05/28 07:15:51;;;;;;;;;13.67;12.67;;;;;20.74;41.86;101741.09;5020926;28;53972;-57
2021/05/28 07:18:17;;;;;;;;;11.67;11.67;;;;;20.73;41.73;101739.38;5023126;28;45366;-56
2021/05/28 07:20:42;;;;;;;;;15.00;14.00;;;;;20.74;41.55;101738.47;5021514;28;45613;-56
2021/05/28 07:23:08;;;;;;;;;13.00;13.00;;;;;20.73;41.81;101748.13;5029666;28;53490;-57
2021/05/28 07:25:33;;;;;;;;;14.00;11.67;;;;;20.73;42.00;101742.00;5022558;28;54601;-56
2021/05/28 07:27:59;;;;;;;;;12.33;10.67;;;;;20.74;41.55;101738.47;5022597;28;45276;-57
2021/05/28 07:30:24;;;;;;;;;13.00;13.00;;;;;20.73;41.68;101728.84;5022886;28;45589;-56
2021/05/28 07:32:50;;;;;;;;;9.67;9.67;;;;;20.73;41.72;101724.41;5022529;28;45383;-56
2021/05/28 07:35:15;;;;;;;;;13.33;12.67;;;;;20.74;41.65;101733.19;5021128;28;46187;-56
2021/05/28 07:37:41;;;;;;;;;13.67;10.33;;;;;20.73;41.84;101736.75;5022484;28;45279;-56
2021/05/28 07:40:08;;;;;;;;;11.67;11.67;;;;;20.73;41.72;101728.84;5022777;28;45557;-55
2021/05/28 07:42:34;;;;;;;;;13.00;11.00;;;;;20.73;41.75;101731.47;5020954;28;46832;-54
2021/05/28 07:44:59;;;;;;;;;10.33;8.00;;;;;20.71;41.79;101727.09;5021369;28;60385;-55
2021/05/28 07:47:24;;;;;;;;;12.00;10.67;;;;;20.73;41.46;101727.03;5022481;28;57144;-55
2021/05/28 07:49:50;;;;;;;;;12.33;11.00;;;;;20.73;41.45;101718.28;5022464;28;45602;-55
2021/05/28 07:52:16;;;;;;;;;10.33;10.33;;;;;20.73;41.60;101719.13;5021909;28;55295;-57
2021/05/28 07:54:41;;;;;;;;;13.00;12.00;;;;;20.73;41.61;101713.00;5022392;28;45493;-56
2021/05/28 07:57:07;;;;;;;;;12.33;12.00;;;;;20.72;41.43;101712.16;5029703;28;45386;-55
2021/05/28 07:59:33;;;;;;;;;9.67;9.67;;;;;20.71;41.46;101703.34;5010134;28;45454;-55
2021/05/28 08:01:58;;;;;;;;;11.33;11.33;;;;;20.73;41.50;101713.00;5029228;28;46907;-56
2021/05/28 08:04:24;;;;;;;;;10.00;10.00;;;;;20.72;41.74;101712.16;5040112;28;45463;-55
2021/05/28 08:06:49;;;;;;;;;12.33;9.67;;;;;20.72;41.63;101706.88;5041838;28;45227;-58
2021/05/28 08:09:15;;;;;;;;;10.33;10.33;;;;;20.72;41.54;101709.53;5040984;28;45212;-55
2021/05/28 08:11:41;;;;;;;;;12.00;12.00;;;;;20.71;41.62;101711.28;5040535;28;46049;-56
2021/05/28 08:14:07;;;;;;;;;9.67;9.67;;;;;20.70;41.90;101708.69;5027509;28;45485;-58
2021/05/28 08:16:32;;;;;;;;;11.67;11.67;;;;;20.69;41.69;101709.59;5020967;28;45622;-58
2021/05/28 08:18:58;;;;;;;;;11.67;11.00;;;;;20.67;42.10;101706.13;5032261;28;45315;-63
2021/05/28 08:21:23;;;;;;;;;10.33;9.33;;;;;20.65;41.53;101698.25;5026890;28;45559;-52
2021/05/28 08:23:48;;;;;;;;;14.33;10.67;;;;;20.65;42.00;101698.25;5024933;28;45438;-53
2021/05/28 08:26:14;;;;;;;;;12.67;11.67;;;;;20.64;42.01;101698.31;5021436;28;56637;-52
2021/05/28 08:28:39;;;;;;;;;9.33;9.33;;;;;20.63;41.84;101697.47;5021908;28;45486;-53
2021/05/28 08:31:06;;;;;;;;;13.00;12.00;;;;;20.63;42.01;101691.31;5020068;28;48043;-52
2021/05/28 08:33:33;;;;;;;;;9.33;9.33;;;;;20.63;41.88;101697.47;5021577;28;45425;-51
2021/05/28 08:35:58;;;;;;;;;10.00;10.00;;;;;20.64;41.73;101701.81;5021122;28;45420;-51
2021/05/28 08:38:23;;;;;;;;;10.33;8.33;;;;;20.64;41.83;101701.81;5021754;28;45372;-50
2021/05/28 08:40:49;;;;;;;;;11.00;10.00;;;;;20.63;41.82;101705.38;5020113;28;46167;-51
2021/05/28 08:43:14;;;;;;;;;10.33;10.33;;;;;20.65;41.98;101705.31;5021360;28;45256;-52
2021/05/28 08:45:42;;;;;;;;;9.33;9.33;;;;;20.65;42.08;101700.03;5021341;28;45223;-51
2021/05/28 08:48:10;;;;;;;;;10.67;9.00;;;;;20.65;41.86;101697.41;5020395;28;45417;-48
2021/05/28 08:50:36;;;;;;;;;10.00;9.67;;;;;20.66;42.03;101693.84;5021151;28;45584;-51
2021/05/28 08:53:04;;;;;;;;;10.67;8.00;;;;;20.67;41.76;101679.75;5037821;28;45339;-50
2021/05/28 08:55:30;;;;;;;;;8.33;7.67;;;;;20.67;42.17;101679.75;5029905;28;45823;-50
2021/05/28 08:57:55;;;;;;;;;12.33;12.33;;;;;20.67;42.01;101682.41;5037346;28;45358;-52
2021/05/28 09:00:23;;;;;;;;;8.00;8.00;;;;;20.67;42.20;101675.34;5015063;28;47295;-52
2021/05/28 09:02:48;;;;;;;;;9.67;9.67;;;;;20.68;42.41;101681.50;5019433;28;45414;-51
2021/05/28 09:05:16;;;;;;;;;7.33;7.33;;;;;20.69;41.93;101677.94;5021213;28;45442;-48
2021/05/28 09:07:59;;;;;;;;;11.33;9.33;;;;;20.69;42.13;101684.06;5019833;28;45379;-49
2021/05/28 09:10:26;;;;;;;;;10.67;10.33;;;;;20.67;42.10;101685.88;5021139;28;46372;-51
2021/05/28 09:12:51;;;;;;;;;10.00;10.00;;;;;20.68;42.10;101674.44;5021062;28;45406;-54
2021/05/28 09:15:21;;;;;;;;;11.00;11.00;;;;;20.69;42.09;101685.88;5019154;28;45417;-48
2021/05/28 09:17:50;;;;;;;;;9.67;8.00;;;;;20.69;42.16;101684.06;5020920;28;45580;-50
2021/05/28 09:20:18;;;;;;;;;12.33;10.33;;;;;20.69;42.03;101684.06;5011707;28;45993;-49
2021/05/28 09:22:43;;;;;;;;;9.67;9.67;;;;;20.69;41.74;101678.81;5019862;28;45448;-52
2021/05/28 09:25:09;;;;;;;;;11.67;9.33;;;;;20.70;41.74;101684.97;5019130;28;45843;-50
2021/05/28 09:27:37;;;;;;;;;12.33;12.33;;;;;20.70;41.70;101677.88;5040619;28;45342;-52
2021/05/28 09:30:13;;;;;;;;;11.67;10.33;;;;;20.71;42.15;101679.63;5042990;28;47227;-52
2021/05/28 09:32:44;;;;;;;;;10.00;8.00;;;;;20.72;42.08;101669.94;5023578;28;45335;-53
2021/05/28 09:35:17;;;;;;;;;9.67;9.67;;;;;20.71;41.92;101669.06;5024477;28;45478;-52
2021/05/28 09:37:42;;;;;;;;;8.67;8.67;;;;;20.71;41.97;101666.44;5042225;28;45443;-51
2021/05/28 09:40:14;;;;;;;;;9.33;8.00;;;;;20.73;42.12;101665.53;5044145;28;46126;-49
2021/05/28 09:42:52;;;;;;;;;8.00;8.00;;;;;20.72;41.85;101669.94;5044007;28;45369;-51
2021/05/28 09:45:32;;;;;;;;;13.00;11.00;;;;;20.72;41.91;101664.69;5044252;28;45403;-49
2021/05/28 09:48:21;;;;;;;;;12.33;10.33;;;;;20.71;41.98;101658.53;5044378;28;45334;-49
2021/05/28 09:50:55;;;;;;;;;10.00;10.00;;;;;20.72;41.69;101651.50;5043975;28;45362;-51
2021/05/28 09:53:33;;;;;;;;;9.00;9.00;;;;;20.71;42.10;101657.69;5042098;28;45516;-49
2021/05/28 09:56:24;;;;;;;;;9.33;7.67;;;;;20.73;42.00;101654.97;5043826;28;46569;-51
2021/05/28 09:58:57;;;;;;;;;9.67;9.33;;;;;20.73;42.02;101653.19;5036313;28;45426;-52
2021/05/28 10:01:22;;;;;;;;;7.00;7.00;;;;;20.74;41.89;101654.91;5036736;28;46209;-51
2021/05/28 10:04:01;;;;;;;;;10.00;10.00;;;;;20.75;41.86;101655.81;5042240;28;45489;-52
2021/05/28 10:06:28;;;;;;;;;11.00;9.67;;;;;20.77;41.71;101654.03;5043556;28;45294;-50
2021/05/28 10:08:58;;;;;;;;;11.67;10.67;;;;;20.77;41.56;101649.59;5043968;28;45319;-49
2021/05/28 10:11:25;;;;;;;;;9.67;7.00;;;;;20.78;41.94;101646.03;5043389;28;46224;-50
2021/05/28 10:13:51;;;;;;;;;7.00;7.00;;;;;20.80;41.75;101652.16;5015039;28;45483;-50
2021/05/28 10:16:17;;;;;;;;;8.00;8.00;;;;;20.81;41.65;101650.34;5023021;28;45418;-51
2021/05/28 10:18:43;;;;;;;;;8.00;8.00;;;;;20.81;41.50;101658.25;5022431;28;47296;-49
2021/05/28 10:21:09;;;;;;;;;8.67;8.67;;;;;20.83;41.61;101651.19;5022173;28;50584;-46
2021/05/28 10:23:34;;;;;;;;;8.00;8.00;;;;;20.84;41.52;101642.34;5022895;28;57950;-47
2021/05/28 10:26:00;;;;;;;;;6.67;6.67;;;;;20.84;41.55;101645.88;5023564;28;45363;-48
2021/05/28 10:28:33;;;;;;;;;7.33;6.33;;;;;20.85;41.51;101641.44;5022512;28;45430;-50
2021/05/28 10:30:59;;;;;;;;;8.00;8.00;;;;;20.85;41.68;101639.69;5023127;28;46482;-48
2021/05/28 10:33:29;;;;;;;;;10.33;9.00;;;;;20.86;41.62;101644.06;5021966;28;45643;-50
2021/05/28 10:36:00;;;;;;;;;7.33;7.33;;;;;20.86;41.46;101641.41;5024885;28;45403;-52
2021/05/28 10:38:43;;;;;;;;;8.00;8.00;;;;;20.87;41.21;101637.00;5032605;28;45321;-51
2021/05/28 10:41:11;;;;;;;;;9.33;7.33;;;;;20.88;41.42;101637.84;5023057;28;45489;-50
2021/05/28 10:43:49;;;;;;;;;9.67;7.33;;;;;20.88;41.27;101636.09;5023012;28;45371;-49
2021/05/28 10:46:15;;;;;;;;;7.67;7.67;;;;;20.89;41.30;101639.56;5021790;28;45447;-52
2021/05/28 10:48:41;;;;;;;;;10.33;7.67;;;;;20.88;41.15;101636.09;5023025;28;45648;-51
2021/05/28 10:51:12;;;;;;;;;8.00;8.00;;;;;20.89;41.35;101637.81;5022908;28;46871;-47
2021/05/28 10:53:38;;;;;;;;;8.67;8.67;;;;;20.90;41.20;101636.03;5022218;28;45330;-51
2021/05/28 10:56:11;;;;;;;;;9.67;9.67;;;;;20.90;41.55;101636.91;5023105;28;45451;-51
2021/05/28 10:58:53;;;;;;;;;8.33;8.33;;;;;20.90;41.20;101643.94;5032992;28;45604;-49
2021/05/28 11:01:47;;;;;;;;;8.00;7.33;;;;;20.89;40.99;101631.66;5042787;28;46301;-52
2021/05/28 11:04:14;;;;;;;;;8.67;7.67;;;;;20.90;41.15;101630.75;5042201;28;45347;-46
2021/05/28 11:06:59;;;;;;;;;10.00;6.33;;;;;20.90;41.72;101629.00;5042299;28;45369;-51
2021/05/28 11:09:44;;;;;;;;;9.00;9.00;;;;;20.91;41.49;101627.19;5039508;28;45400;-54